createdAt,value
2023-03-06T00:01:49.642Z,2.28
2023-03-06T00:06:52.948Z,1.37
2023-03-06T00:11:55.563Z,1.23
2023-03-06T00:16:58.259Z,2.55
2023-03-06T00:22:14.214Z,2.82
2023-03-06T00:27:16.811Z,2.90
2023-03-06T00:32:19.499Z,2.65
2023-03-06T00:37:25.166Z,3.79
2023-03-06T00:42:27.837Z,2.49
2023-03-06T00:47:30.401Z,3.49
2023-03-06T00:52:43.570Z,3.25
2023-03-06T00:57:46.197Z,3.28
2023-03-06T01:02:48.754Z,2.09
2023-03-06T01:07:51.446Z,2.72
2023-03-06T01:12:55.092Z,2.97
2023-03-06T01:17:57.639Z,3.08
2023-03-06T01:23:00.348Z,2.36
2023-03-06T01:28:02.956Z,1.88
2023-03-06T01:33:05.908Z,2.77
2023-03-06T01:38:09.035Z,3.13
2023-03-06T01:43:27.370Z,3.52
2023-03-06T01:48:30.042Z,3.02
2023-03-06T01:53:33.039Z,3.25
2023-03-06T01:58:35.888Z,2.47
2023-03-06T02:03:42.687Z,2.88
2023-03-06T02:08:53.475Z,3.33
2023-03-06T02:13:56.346Z,2.88
2023-03-06T02:19:01.303Z,2.15
2023-03-06T02:24:25.679Z,3.54
2023-03-06T02:29:30.985Z,2.77
2023-03-06T02:34:38.228Z,3.47
2023-03-06T02:39:49.172Z,2.08
2023-03-06T02:44:54.827Z,3.39
2023-03-06T02:49:57.896Z,3.37
2023-03-06T02:55:00.674Z,1.34
2023-03-06T03:00:03.963Z,2.84
2023-03-06T03:05:07.454Z,2.71
2023-03-06T03:10:11.087Z,2.97
2023-03-06T03:15:13.687Z,3.34
2023-03-06T03:20:19.723Z,3.22
2023-03-06T03:25:24.354Z,3.35
2023-03-06T03:30:27.196Z,1.63
2023-03-06T03:35:29.981Z,1.63
2023-03-06T03:40:32.585Z,2.77
2023-03-06T03:45:35.087Z,2.21
2023-03-06T03:50:37.617Z,3.03
2023-03-06T03:55:40.273Z,1.71
2023-03-06T04:00:43.024Z,2.90
2023-03-06T04:05:45.592Z,2.84
2023-03-06T04:10:48.120Z,2.67
2023-03-06T04:15:53.407Z,2.94
2023-03-06T04:20:56.115Z,1.89
2023-03-06T04:25:58.901Z,1.86
2023-03-06T04:31:02.021Z,3.03
2023-03-06T04:36:05.419Z,2.36
2023-03-06T04:41:08.247Z,1.51
2023-03-06T04:46:12.079Z,3.06
2023-03-06T04:51:15.514Z,2.82
2023-03-06T04:56:18.071Z,2.59
2023-03-06T05:01:20.952Z,2.57
2023-03-06T05:06:23.859Z,2.47
2023-03-06T05:11:26.879Z,2.88
2023-03-06T05:16:29.603Z,4.14
2023-03-06T05:21:32.548Z,3.52
2023-03-06T05:26:35.882Z,4.80
2023-03-06T05:31:45.588Z,4.25
2023-03-06T05:36:48.708Z,4.28
2023-03-06T05:41:51.662Z,2.76
2023-03-06T05:46:54.184Z,3.34
2023-03-06T05:51:56.746Z,4.33
2023-03-06T05:56:59.343Z,4.05
2023-03-06T06:02:02.229Z,4.46
2023-03-06T06:07:06.795Z,2.52
2023-03-06T06:12:10.006Z,3.62
2023-03-06T06:17:13.703Z,3.57
2023-03-06T06:22:16.397Z,2.94
2023-03-06T06:27:19.070Z,3.32
2023-03-06T06:32:21.768Z,3.26
2023-03-06T06:37:25.582Z,4.98
2023-03-06T06:42:35.162Z,3.34
2023-03-06T06:47:42.209Z,5.05
2023-03-06T06:52:44.909Z,4.63
2023-03-06T06:57:47.551Z,4.43
2023-03-06T07:02:52.040Z,4.86
2023-03-06T07:07:54.692Z,4.58
2023-03-06T07:12:57.450Z,5.40
2023-03-06T07:18:01.782Z,5.85
2023-03-06T07:23:04.843Z,5.12
2023-03-06T07:28:07.751Z,5.83
2023-03-06T07:33:10.853Z,6.37
2023-03-06T07:38:13.867Z,5.32
2023-03-06T07:43:19.301Z,6.21
2023-03-06T07:48:22.356Z,6.78
2023-03-06T07:53:25.568Z,7.41
2023-03-06T07:58:28.268Z,7.20
2023-03-06T08:03:30.822Z,7.68
2023-03-06T08:08:35.839Z,7.95
2023-03-06T08:13:39.055Z,7.66
2023-03-06T08:18:45.750Z,8.22
2023-03-06T08:23:49.336Z,7.42
2023-03-06T08:28:53.687Z,7.76
2023-03-06T08:33:58.012Z,8.81
2023-03-06T08:39:01.502Z,9.05
2023-03-06T08:44:05.237Z,9.02
2023-03-06T08:49:08.956Z,9.11
2023-03-06T08:54:15.157Z,9.29
2023-03-06T08:59:17.846Z,9.04
2023-03-06T09:04:20.459Z,7.82
2023-03-06T09:09:23.084Z,8.57
2023-03-06T09:14:25.876Z,9.23
2023-03-06T09:19:28.450Z,9.44
2023-03-06T09:24:31.056Z,8.06
2023-03-06T09:29:33.831Z,8.90
2023-03-06T09:34:37.682Z,9.63
2023-03-06T09:39:40.261Z,8.08
2023-03-06T09:44:44.279Z,7.90
2023-03-06T09:50:01.940Z,9.35
2023-03-06T09:55:25.046Z,9.58
2023-03-06T10:00:34.907Z,8.87
2023-03-06T10:05:43.570Z,10.09
2023-03-06T10:11:10.307Z,10.52
2023-03-06T10:16:24.284Z,10.68
2023-03-06T10:22:04.397Z,11.47
2023-03-06T10:27:49.987Z,10.99
2023-03-06T10:33:04.827Z,11.22
2023-03-06T10:38:38.479Z,10.88
2023-03-06T10:43:46.854Z,10.58
2023-03-06T10:48:58.860Z,10.31
2023-03-06T10:54:15.415Z,8.87
2023-03-06T10:59:32.186Z,9.59
2023-03-06T11:04:36.412Z,9.57
2023-03-06T11:09:39.557Z,10.22
2023-03-06T11:14:42.332Z,9.01
2023-03-06T11:19:44.902Z,8.94
2023-03-06T11:24:51.647Z,9.35
2023-03-06T11:29:57.743Z,9.05
2023-03-06T11:35:00.546Z,11.01
2023-03-06T11:40:12.522Z,10.78
2023-03-06T11:45:38.205Z,10.23
2023-03-06T11:51:26.714Z,10.49
2023-03-06T11:56:35.221Z,9.93
2023-03-06T12:01:53.698Z,9.96
2023-03-06T12:07:25.494Z,9.97
2023-03-06T12:13:12.816Z,8.72
2023-03-06T12:18:39.083Z,9.27
2023-03-06T12:24:04.571Z,9.40
2023-03-06T12:29:23.959Z,7.83
2023-03-06T12:34:47.324Z,9.15
2023-03-06T12:40:07.814Z,9.03
2023-03-06T12:45:23.246Z,9.19
2023-03-06T12:50:28.876Z,9.41
2023-03-06T12:55:41.943Z,9.17
2023-03-06T13:01:10.157Z,8.88
2023-03-06T13:06:25.628Z,8.29
2023-03-06T13:12:06.307Z,7.76
2023-03-06T13:17:24.035Z,8.69
2023-03-06T13:22:30.162Z,7.01
2023-03-06T13:27:58.838Z,7.73
2023-03-06T13:33:01.625Z,7.72
2023-03-06T13:38:32.702Z,8.32
2023-03-06T13:43:45.038Z,7.20
2023-03-06T13:49:11.782Z,8.25
2023-03-06T13:54:23.193Z,8.53
2023-03-06T13:59:45.777Z,8.60
2023-03-06T14:04:57.300Z,8.42
2023-03-06T14:10:14.869Z,8.46
2023-03-06T14:15:32.375Z,8.06
2023-03-06T14:20:45.645Z,7.29
2023-03-06T14:25:54.151Z,7.53
2023-03-06T14:30:59.356Z,7.79
2023-03-06T14:36:08.307Z,7.27
2023-03-06T14:41:13.014Z,7.41
2023-03-06T14:46:22.615Z,8.12
2023-03-06T14:51:29.157Z,7.52
2023-03-06T14:56:48.000Z,7.84
2023-03-06T15:01:56.994Z,8.14
2023-03-06T15:07:00.831Z,8.01
2023-03-06T15:12:31.935Z,7.96
2023-03-06T15:17:44.137Z,8.06
2023-03-06T15:22:51.399Z,7.88
2023-03-06T15:28:01.013Z,7.99
2023-03-06T15:33:20.527Z,7.80
2023-03-06T15:38:30.728Z,7.98
2023-03-06T15:43:40.578Z,8.35
2023-03-06T15:49:03.507Z,8.09
2023-03-06T15:54:12.341Z,8.30
2023-03-06T15:59:23.124Z,7.57
2023-03-06T16:04:26.526Z,8.06
2023-03-06T16:09:29.874Z,7.75
2023-03-06T16:14:33.555Z,6.94
2023-03-06T16:19:37.000Z,7.73
2023-03-06T16:24:40.899Z,7.77
2023-03-06T16:29:44.435Z,7.78
2023-03-06T16:34:48.300Z,6.98
2023-03-06T16:39:52.342Z,7.40
2023-03-06T16:44:56.029Z,7.47
2023-03-06T16:50:02.780Z,6.58
2023-03-06T16:55:06.794Z,7.42
2023-03-06T17:00:12.210Z,7.18
2023-03-06T17:05:16.835Z,7.18
2023-03-06T17:10:23.467Z,7.67
2023-03-06T17:15:27.110Z,7.69
2023-03-06T17:20:30.571Z,6.74
2023-03-06T17:25:35.758Z,6.38
2023-03-06T17:30:39.247Z,6.19
2023-03-06T17:35:42.699Z,6.12
2023-03-06T17:40:46.033Z,5.85
2023-03-06T17:45:49.441Z,6.14
2023-03-06T17:50:56.994Z,5.49
2023-03-06T17:56:13.444Z,5.37
2023-03-06T18:01:22.879Z,5.76
2023-03-06T18:06:28.587Z,5.74
2023-03-06T18:11:33.624Z,5.66
2023-03-06T18:16:37.355Z,6.07
2023-03-06T18:21:41.154Z,6.29
2023-03-06T18:26:44.423Z,5.68
2023-03-06T18:31:50.785Z,6.13
2023-03-06T18:36:54.282Z,6.02
2023-03-06T18:41:57.839Z,5.77
2023-03-06T18:47:01.218Z,5.70
2023-03-06T18:52:04.773Z,4.64
2023-03-06T18:57:13.874Z,5.71
2023-03-06T19:02:17.653Z,5.12
2023-03-06T19:07:31.044Z,5.50
2023-03-06T19:12:36.332Z,5.88
2023-03-06T19:17:39.807Z,5.47
2023-03-06T19:22:43.282Z,5.68
2023-03-06T19:27:46.978Z,5.97
2023-03-06T19:32:50.309Z,5.25
2023-03-06T19:37:54.285Z,5.58
2023-03-06T19:43:07.720Z,5.84
2023-03-06T19:48:13.197Z,6.01
2023-03-06T19:53:16.904Z,5.86
2023-03-06T19:58:20.279Z,5.94
2023-03-06T20:03:23.536Z,5.27
2023-03-06T20:08:27.338Z,4.60
2023-03-06T20:13:31.364Z,5.39
2023-03-06T20:18:50.487Z,5.15
2023-03-06T20:23:55.380Z,6.83
2023-03-06T20:29:00.088Z,6.10
2023-03-06T20:34:04.498Z,6.81
2023-03-06T20:39:10.877Z,6.05
2023-03-06T20:44:17.573Z,6.37
2023-03-06T20:49:21.133Z,6.41
2023-03-06T20:54:27.237Z,6.49
2023-03-06T20:59:30.593Z,6.42
2023-03-06T21:04:34.030Z,6.42
2023-03-06T21:09:38.686Z,6.00
2023-03-06T21:14:42.026Z,6.52
2023-03-06T21:19:56.195Z,6.14
2023-03-06T21:24:59.523Z,5.73
2023-03-06T21:30:03.309Z,6.58
2023-03-06T21:35:06.964Z,6.32
2023-03-06T21:40:11.429Z,5.80
2023-03-06T21:45:14.886Z,5.44
2023-03-06T21:50:18.579Z,6.20
2023-03-06T21:55:22.188Z,5.97
2023-03-06T22:00:26.911Z,5.80
2023-03-06T22:05:32.628Z,5.44
2023-03-06T22:10:39.668Z,6.29
2023-03-06T22:15:54.107Z,6.74
2023-03-06T22:20:57.831Z,6.42
2023-03-06T22:26:06.562Z,6.63
2023-03-06T22:31:19.672Z,6.02
2023-03-06T22:36:24.432Z,5.64
2023-03-06T22:41:37.998Z,5.79
2023-03-06T22:46:42.566Z,5.76
2023-03-06T22:51:54.208Z,5.90
2023-03-06T22:56:57.715Z,6.65
2023-03-06T23:02:01.387Z,6.30
2023-03-06T23:07:05.718Z,7.07
2023-03-06T23:12:10.032Z,6.26
2023-03-06T23:17:13.307Z,7.06
2023-03-06T23:22:17.195Z,7.01
2023-03-06T23:27:20.757Z,5.73
2023-03-06T23:32:24.096Z,5.84
2023-03-06T23:37:27.717Z,6.48
2023-03-06T23:42:31.266Z,6.44
2023-03-06T23:47:35.344Z,7.27
2023-03-06T23:52:39.694Z,6.70
2023-03-06T23:57:43.039Z,6.49
